sensor_id;sensor_type;location;lat;lon;timestamp;pressure;altitude;pressure_sealevel;temperature;humidity
70781;BME280;59514;48.810;2.134;2022-07-12T00:00:47;100903.91;;;24.32;50.50
70781;BME280;59514;48.810;2.134;2022-07-12T00:03:13;100902.31;;;24.31;50.82
70781;BME280;59514;48.810;2.134;2022-07-12T00:05:38;100895.59;;;24.24;51.01
70781;BME280;59514;48.810;2.134;2022-07-12T00:08:04;100902.31;;;24.31;50.89
70781;BME280;59514;48.810;2.134;2022-07-12T00:10:31;100909.53;;;24.27;50.74
70781;BME280;59514;48.810;2.134;2022-07-12T00:12:57;100903.50;;;24.25;51.26
70781;BME280;59514;48.810;2.134;2022-07-12T00:15:23;100908.38;;;24.28;51.19
70781;BME280;59514;48.810;2.134;2022-07-12T00:17:48;100908.91;;;24.30;51.46
70781;BME280;59514;48.810;2.134;2022-07-12T00:20:14;100907.78;;;24.31;51.77
70781;BME280;59514;48.810;2.134;2022-07-12T00:22:39;100906.16;;;24.30;51.59
70781;BME280;59514;48.810;2.134;2022-07-12T00:25:05;100907.97;;;24.21;51.88
70781;BME280;59514;48.810;2.134;2022-07-12T00:27:31;100904.53;;;24.16;52.18
70781;BME280;59514;48.810;2.134;2022-07-12T00:29:56;100908.97;;;24.12;51.95
70781;BME280;59514;48.810;2.134;2022-07-12T00:32:21;100906.00;;;24.08;52.33
70781;BME280;59514;48.810;2.134;2022-07-12T00:34:47;100907.78;;;23.99;52.31
70781;BME280;59514;48.810;2.134;2022-07-12T00:37:13;100906.69;;;24.00;52.60
70781;BME280;59514;48.810;2.134;2022-07-12T00:39:38;100911.66;;;23.98;52.69
70781;BME280;59514;48.810;2.134;2022-07-12T00:42:04;100911.16;;;23.96;52.12
70781;BME280;59514;48.810;2.134;2022-07-12T00:44:30;100907.81;;;23.80;53.37
70781;BME280;59514;48.810;2.134;2022-07-12T00:46:59;100905.06;;;23.80;53.17
70781;BME280;59514;48.810;2.134;2022-07-12T00:49:24;100902.06;;;23.82;53.51
70781;BME280;59514;48.810;2.134;2022-07-12T00:51:50;100898.69;;;23.85;53.52
70781;BME280;59514;48.810;2.134;2022-07-12T00:54:16;100902.63;;;23.79;53.24
70781;BME280;59514;48.810;2.134;2022-07-12T00:56:43;100897.66;;;23.81;54.11
70781;BME280;59514;48.810;2.134;2022-07-12T00:59:08;100892.03;;;23.72;53.54
70781;BME280;59514;48.810;2.134;2022-07-12T01:01:34;100894.00;;;23.72;54.09
70781;BME280;59514;48.810;2.134;2022-07-12T01:04:00;100891.00;;;23.68;53.71
70781;BME280;59514;48.810;2.134;2022-07-12T01:06:25;100888.47;;;23.58;54.02
70781;BME280;59514;48.810;2.134;2022-07-12T01:08:51;100891.41;;;23.62;54.28
70781;BME280;59514;48.810;2.134;2022-07-12T01:11:16;100891.41;;;23.62;54.18
70781;BME280;59514;48.810;2.134;2022-07-12T01:13:44;100901.03;;;23.59;54.03
70781;BME280;59514;48.810;2.134;2022-07-12T01:16:10;100890.91;;;23.60;54.50
70781;BME280;59514;48.810;2.134;2022-07-12T01:18:37;100902.69;;;23.60;54.51
70781;BME280;59514;48.810;2.134;2022-07-12T01:21:04;100904.66;;;23.55;54.69
70781;BME280;59514;48.810;2.134;2022-07-12T01:23:33;100904.66;;;23.55;54.61
70781;BME280;59514;48.810;2.134;2022-07-12T01:25:59;100902.03;;;23.50;54.59
70781;BME280;59514;48.810;2.134;2022-07-12T01:28:25;100897.63;;;23.49;55.28
70781;BME280;59514;48.810;2.134;2022-07-12T01:30:50;100893.84;;;23.45;55.10
70781;BME280;59514;48.810;2.134;2022-07-12T01:33:16;100887.34;;;23.41;55.08
70781;BME280;59514;48.810;2.134;2022-07-12T01:35:42;100882.25;;;23.34;55.60
70781;BME280;59514;48.810;2.134;2022-07-12T01:38:08;100877.78;;;23.20;55.70
70781;BME280;59514;48.810;2.134;2022-07-12T01:40:33;100874.00;;;23.16;55.75
70781;BME280;59514;48.810;2.134;2022-07-12T01:43:01;100871.78;;;23.18;55.84
70781;BME280;59514;48.810;2.134;2022-07-12T01:45:26;100862.00;;;23.11;55.88
70781;BME280;59514;48.810;2.134;2022-07-12T01:47:52;100868.22;;;22.98;56.42
70781;BME280;59514;48.810;2.134;2022-07-12T01:50:18;100869.66;;;22.91;56.42
70781;BME280;59514;48.810;2.134;2022-07-12T01:52:43;100873.56;;;22.85;56.73
70781;BME280;59514;48.810;2.134;2022-07-12T01:55:10;100873.81;;;22.88;56.61
70781;BME280;59514;48.810;2.134;2022-07-12T01:57:38;100879.16;;;22.98;56.39
70781;BME280;59514;48.810;2.134;2022-07-12T02:00:05;100883.75;;;23.03;56.33
70781;BME280;59514;48.810;2.134;2022-07-12T02:02:31;100879.59;;;23.05;56.25
70781;BME280;59514;48.810;2.134;2022-07-12T02:04:59;100878.44;;;23.11;56.07
70781;BME280;59514;48.810;2.134;2022-07-12T02:07:24;100882.81;;;23.13;56.47
70781;BME280;59514;48.810;2.134;2022-07-12T02:09:50;100881.25;;;23.06;56.45
70781;BME280;59514;48.810;2.134;2022-07-12T02:12:16;100886.47;;;23.03;56.40
70781;BME280;59514;48.810;2.134;2022-07-12T02:14:42;100887.44;;;22.93;56.74
70781;BME280;59514;48.810;2.134;2022-07-12T02:17:07;100881.44;;;22.91;57.00
70781;BME280;59514;48.810;2.134;2022-07-12T02:19:32;100881.66;;;22.95;56.77
70781;BME280;59514;48.810;2.134;2022-07-12T02:21:57;100878.41;;;22.93;56.87
70781;BME280;59514;48.810;2.134;2022-07-12T02:24:23;100885.22;;;22.95;56.46
70781;BME280;59514;48.810;2.134;2022-07-12T02:26:48;100882.69;;;22.80;57.10
70781;BME280;59514;48.810;2.134;2022-07-12T02:29:13;100886.00;;;22.77;57.36
70781;BME280;59514;48.810;2.134;2022-07-12T02:31:39;100892.00;;;22.79;57.17
70781;BME280;59514;48.810;2.134;2022-07-12T02:34:05;100892.59;;;22.76;57.43
70781;BME280;59514;48.810;2.134;2022-07-12T02:36:30;100896.50;;;22.70;57.48
70781;BME280;59514;48.810;2.134;2022-07-12T02:38:55;100890.50;;;22.68;58.00
70781;BME280;59514;48.810;2.134;2022-07-12T02:41:21;100882.81;;;22.70;57.48
70781;BME280;59514;48.810;2.134;2022-07-12T02:43:46;100880.66;;;22.67;57.69
70781;BME280;59514;48.810;2.134;2022-07-12T02:46:12;100875.78;;;22.64;58.26
70781;BME280;59514;48.810;2.134;2022-07-12T02:48:39;100875.69;;;22.69;57.86
70781;BME280;59514;48.810;2.134;2022-07-12T02:51:06;100881.53;;;22.63;57.87
70781;BME280;59514;48.810;2.134;2022-07-12T02:53:32;100880.22;;;22.55;58.17
70781;BME280;59514;48.810;2.134;2022-07-12T02:55:58;100892.59;;;22.53;58.13
70781;BME280;59514;48.810;2.134;2022-07-12T02:58:23;100895.03;;;22.54;58.32
70781;BME280;59514;48.810;2.134;2022-07-12T03:00:49;100892.81;;;22.56;58.51
70781;BME280;59514;48.810;2.134;2022-07-12T03:03:15;100893.97;;;22.50;58.22
70781;BME280;59514;48.810;2.134;2022-07-12T03:05:41;100897.63;;;22.41;58.81
70781;BME280;59514;48.810;2.134;2022-07-12T03:08:08;100893.16;;;22.50;58.81
70781;BME280;59514;48.810;2.134;2022-07-12T03:10:34;100896.19;;;22.48;58.40
70781;BME280;59514;48.810;2.134;2022-07-12T03:12:59;100895.13;;;22.44;58.46
70781;BME280;59514;48.810;2.134;2022-07-12T03:15:25;100899.22;;;22.47;58.68
70781;BME280;59514;48.810;2.134;2022-07-12T03:17:50;100891.22;;;22.50;58.44
70781;BME280;59514;48.810;2.134;2022-07-12T03:20:16;100898.91;;;22.48;58.66
70781;BME280;59514;48.810;2.134;2022-07-12T03:22:42;100894.94;;;22.36;58.92
70781;BME280;59514;48.810;2.134;2022-07-12T03:25:09;100893.13;;;22.26;59.31
70781;BME280;59514;48.810;2.134;2022-07-12T03:27:34;100881.72;;;22.19;59.34
70781;BME280;59514;48.810;2.134;2022-07-12T03:30:00;100889.16;;;22.13;59.65
70781;BME280;59514;48.810;2.134;2022-07-12T03:32:26;100887.84;;;22.06;59.90
70781;BME280;59514;48.810;2.134;2022-07-12T03:34:51;100897.50;;;21.98;60.21
70781;BME280;59514;48.810;2.134;2022-07-12T03:37:17;100898.66;;;21.92;60.12
70781;BME280;59514;48.810;2.134;2022-07-12T03:39:42;100896.22;;;21.91;60.54
70781;BME280;59514;48.810;2.134;2022-07-12T03:42:07;100897.28;;;21.95;60.33
70781;BME280;59514;48.810;2.134;2022-07-12T03:44:33;100901.09;;;21.94;60.46
70781;BME280;59514;48.810;2.134;2022-07-12T03:46:59;100902.22;;;21.93;60.47
70781;BME280;59514;48.810;2.134;2022-07-12T03:49:25;100905.31;;;21.81;60.91
70781;BME280;59514;48.810;2.134;2022-07-12T03:51:50;100914.91;;;21.74;61.49
70781;BME280;59514;48.810;2.134;2022-07-12T03:54:15;100912.16;;;21.74;61.18
70781;BME280;59514;48.810;2.134;2022-07-12T03:56:41;100909.19;;;21.70;61.51
70781;BME280;59514;48.810;2.134;2022-07-12T03:59:25;100910.31;;;21.69;61.28
70781;BME280;59514;48.810;2.134;2022-07-12T04:01:50;100911.94;;;21.70;61.47
70781;BME280;59514;48.810;2.134;2022-07-12T04:04:16;100913.06;;;21.64;61.57
70781;BME280;59514;48.810;2.134;2022-07-12T04:06:41;100920.41;;;21.69;61.64
70781;BME280;59514;48.810;2.134;2022-07-12T04:09:06;100927.50;;;21.70;60.90
70781;BME280;59514;48.810;2.134;2022-07-12T04:11:32;100937.72;;;21.59;61.76
70781;BME280;59514;48.810;2.134;2022-07-12T04:13:58;100935.53;;;21.56;61.70
70781;BME280;59514;48.810;2.134;2022-07-12T04:16:24;100936.31;;;21.62;61.82
70781;BME280;59514;48.810;2.134;2022-07-12T04:18:49;100934.44;;;21.57;61.89
70781;BME280;59514;48.810;2.134;2022-07-12T04:21:15;100927.78;;;21.73;61.63
70781;BME280;59514;48.810;2.134;2022-07-12T04:23:40;100933.56;;;21.67;61.91
70781;BME280;59514;48.810;2.134;2022-07-12T04:26:06;100928.56;;;21.74;61.68
70781;BME280;59514;48.810;2.134;2022-07-12T04:28:31;100928.09;;;21.67;61.52
70781;BME280;59514;48.810;2.134;2022-07-12T04:30:56;100937.13;;;21.62;61.37
70781;BME280;59514;48.810;2.134;2022-07-12T04:33:22;100935.81;;;21.55;61.66
70781;BME280;59514;48.810;2.134;2022-07-12T04:35:47;100937.72;;;21.59;61.89
70781;BME280;59514;48.810;2.134;2022-07-12T04:38:12;100933.69;;;21.47;62.12
70781;BME280;59514;48.810;2.134;2022-07-12T04:40:38;100931.50;;;21.49;62.29
70781;BME280;59514;48.810;2.134;2022-07-12T04:43:03;100933.22;;;21.34;62.71
70781;BME280;59514;48.810;2.134;2022-07-12T04:45:28;100940.59;;;21.34;63.14
70781;BME280;59514;48.810;2.134;2022-07-12T04:47:54;100936.72;;;21.40;62.69
70781;BME280;59514;48.810;2.134;2022-07-12T04:50:19;100937.53;;;21.46;62.96
70781;BME280;59514;48.810;2.134;2022-07-12T04:52:44;100944.63;;;21.47;62.38
70781;BME280;59514;48.810;2.134;2022-07-12T04:55:10;100947.31;;;21.52;62.03
70781;BME280;59514;48.810;2.134;2022-07-12T04:57:35;100946.00;;;21.44;62.72
70781;BME280;59514;48.810;2.134;2022-07-12T05:00:01;100947.13;;;21.38;62.81
70781;BME280;59514;48.810;2.134;2022-07-12T05:02:26;100948.78;;;21.39;62.66
70781;BME280;59514;48.810;2.134;2022-07-12T05:04:52;100943.31;;;21.39;62.84
70781;BME280;59514;48.810;2.134;2022-07-12T05:07:17;100953.34;;;21.49;62.90
70781;BME280;59514;48.810;2.134;2022-07-12T05:09:43;100950.31;;;21.50;62.79
70781;BME280;59514;48.810;2.134;2022-07-12T05:12:08;100953.94;;;21.46;62.85
70781;BME280;59514;48.810;2.134;2022-07-12T05:14:33;100950.66;;;21.43;62.90
70781;BME280;59514;48.810;2.134;2022-07-12T05:16:59;100962.63;;;21.48;63.25
70781;BME280;59514;48.810;2.134;2022-07-12T05:19:24;100958.22;;;21.57;63.00
70781;BME280;59514;48.810;2.134;2022-07-12T05:21:50;100952.72;;;21.62;62.83
70781;BME280;59514;48.810;2.134;2022-07-12T05:24:15;100963.63;;;21.62;62.80
70781;BME280;59514;48.810;2.134;2022-07-12T05:26:41;100957.03;;;21.68;62.59
70781;BME280;59514;48.810;2.134;2022-07-12T05:29:07;100965.78;;;21.70;62.15
70781;BME280;59514;48.810;2.134;2022-07-12T05:31:32;100966.91;;;21.64;62.35
70781;BME280;59514;48.810;2.134;2022-07-12T05:33:57;100974.50;;;21.72;61.76
70781;BME280;59514;48.810;2.134;2022-07-12T05:36:23;100974.50;;;21.72;61.94
70781;BME280;59514;48.810;2.134;2022-07-12T05:38:48;100978.06;;;21.77;62.07
70781;BME280;59514;48.810;2.134;2022-07-12T05:41:15;100972.84;;;21.76;62.17
70781;BME280;59514;48.810;2.134;2022-07-12T05:43:40;100981.88;;;21.81;62.75
70781;BME280;59514;48.810;2.134;2022-07-12T05:46:05;100978.81;;;21.88;62.12
70781;BME280;59514;48.810;2.134;2022-07-12T05:48:31;100983.13;;;21.99;62.42
70781;BME280;59514;48.810;2.134;2022-07-12T05:50:56;100987.53;;;21.95;62.47
70781;BME280;59514;48.810;2.134;2022-07-12T05:53:41;100987.53;;;21.90;62.28
70781;BME280;59514;48.810;2.134;2022-07-12T05:56:07;100994.06;;;21.94;62.37
70781;BME280;59514;48.810;2.134;2022-07-12T05:58:32;100999.31;;;21.90;62.11
70781;BME280;59514;48.810;2.134;2022-07-12T06:00:57;101000.69;;;21.88;62.37
70781;BME280;59514;48.810;2.134;2022-07-12T06:03:23;100999.88;;;21.87;62.45
70781;BME280;59514;48.810;2.134;2022-07-12T06:05:48;101003.94;;;21.95;62.39
70781;BME280;59514;48.810;2.134;2022-07-12T06:08:13;101004.41;;;22.02;61.92
70781;BME280;59514;48.810;2.134;2022-07-12T06:10:39;101001.31;;;22.13;61.85
70781;BME280;59514;48.810;2.134;2022-07-12T06:13:04;100997.41;;;22.24;61.37
70781;BME280;59514;48.810;2.134;2022-07-12T06:15:30;101000.44;;;22.18;61.43
70781;BME280;59514;48.810;2.134;2022-07-12T06:17:56;100999.91;;;22.16;61.21
70781;BME280;59514;48.810;2.134;2022-07-12T06:20:22;100998.00;;;22.16;61.16
70781;BME280;59514;48.810;2.134;2022-07-12T06:22:48;101009.47;;;22.18;60.67
70781;BME280;59514;48.810;2.134;2022-07-12T06:25:14;101009.78;;;22.17;60.94
70781;BME280;59514;48.810;2.134;2022-07-12T06:27:39;101009.97;;;22.25;61.11
70781;BME280;59514;48.810;2.134;2022-07-12T06:30:05;101004.75;;;22.29;60.79
70781;BME280;59514;48.810;2.134;2022-07-12T06:32:30;101004.69;;;22.34;61.31
70781;BME280;59514;48.810;2.134;2022-07-12T06:34:56;101010.41;;;22.38;60.67
70781;BME280;59514;48.810;2.134;2022-07-12T06:37:22;101005.13;;;22.46;60.63
70781;BME280;59514;48.810;2.134;2022-07-12T06:39:48;101004.59;;;22.44;60.49
70781;BME280;59514;48.810;2.134;2022-07-12T06:42:13;101006.28;;;22.40;60.21
70781;BME280;59514;48.810;2.134;2022-07-12T06:44:38;101005.75;;;22.38;60.40
70781;BME280;59514;48.810;2.134;2022-07-12T06:47:04;101006.22;;;22.45;60.21
70781;BME280;59514;48.810;2.134;2022-07-12T06:49:29;101001.78;;;22.54;59.65
70781;BME280;59514;48.810;2.134;2022-07-12T06:51:55;101008.34;;;22.58;59.88
70781;BME280;59514;48.810;2.134;2022-07-12T06:54:20;101007.22;;;22.59;60.16
70781;BME280;59514;48.810;2.134;2022-07-12T06:56:45;101009.31;;;22.67;59.05
70781;BME280;59514;48.810;2.134;2022-07-12T06:59:11;101002.91;;;22.77;59.16
70781;BME280;59514;48.810;2.134;2022-07-12T07:01:37;101014.41;;;22.79;59.60
70781;BME280;59514;48.810;2.134;2022-07-12T07:04:03;101017.97;;;22.79;59.94
70781;BME280;59514;48.810;2.134;2022-07-12T07:06:28;101017.09;;;22.84;59.79
70781;BME280;59514;48.810;2.134;2022-07-12T07:08:54;101012.88;;;22.96;60.13
70781;BME280;59514;48.810;2.134;2022-07-12T07:11:19;101013.91;;;23.00;59.78
70781;BME280;59514;48.810;2.134;2022-07-12T07:13:45;101021.00;;;23.01;61.55
70781;BME280;59514;48.810;2.134;2022-07-12T07:16:10;101025.31;;;23.07;61.44
70781;BME280;59514;48.810;2.134;2022-07-12T07:18:35;101019.28;;;23.10;59.21
70781;BME280;59514;48.810;2.134;2022-07-12T07:21:01;101020.38;;;23.09;59.15
70781;BME280;59514;48.810;2.134;2022-07-12T07:23:26;101017.06;;;23.13;58.94
70781;BME280;59514;48.810;2.134;2022-07-12T07:25:51;101018.59;;;23.19;58.97
70781;BME280;59514;48.810;2.134;2022-07-12T07:28:17;101016.38;;;23.21;58.85
70781;BME280;59514;48.810;2.134;2022-07-12T07:30:42;101015.53;;;23.25;58.99
70781;BME280;59514;48.810;2.134;2022-07-12T07:33:23;101010.78;;;23.31;58.76
70781;BME280;59514;48.810;2.134;2022-07-12T07:35:50;101021.22;;;23.34;57.87
70781;BME280;59514;48.810;2.134;2022-07-12T07:38:16;101017.28;;;23.40;57.83
70781;BME280;59514;48.810;2.134;2022-07-12T07:40:42;101019.94;;;23.45;57.65
70781;BME280;59514;48.810;2.134;2022-07-12T07:43:08;101019.38;;;23.48;57.38
70781;BME280;59514;48.810;2.134;2022-07-12T07:45:33;101014.94;;;23.52;58.27
70781;BME280;59514;48.810;2.134;2022-07-12T07:47:59;101025.03;;;23.56;56.82
70781;BME280;59514;48.810;2.134;2022-07-12T07:50:26;101020.28;;;23.62;57.39
70781;BME280;59514;48.810;2.134;2022-07-12T07:52:51;101016.38;;;23.68;56.24
70781;BME280;59514;48.810;2.134;2022-07-12T07:55:17;101025.03;;;23.75;56.63
70781;BME280;59514;48.810;2.134;2022-07-12T07:57:43;101026.59;;;23.81;57.05
70781;BME280;59514;48.810;2.134;2022-07-12T08:00:08;101029.31;;;23.81;56.31
70781;BME280;59514;48.810;2.134;2022-07-12T08:02:34;101035.84;;;23.85;56.80
70781;BME280;59514;48.810;2.134;2022-07-12T08:04:59;101040.75;;;23.88;56.08
70781;BME280;59514;48.810;2.134;2022-07-12T08:07:25;101036.00;;;23.93;55.27
70781;BME280;59514;48.810;2.134;2022-07-12T08:09:50;101043.06;;;24.00;55.83
70781;BME280;59514;48.810;2.134;2022-07-12T08:12:15;101041.66;;;24.02;55.37
70781;BME280;59514;48.810;2.134;2022-07-12T08:14:41;101045.72;;;24.05;55.67
70781;BME280;59514;48.810;2.134;2022-07-12T08:17:06;101043.72;;;24.10;55.08
70781;BME280;59514;48.810;2.134;2022-07-12T08:19:31;101040.91;;;24.15;54.60
70781;BME280;59514;48.810;2.134;2022-07-12T08:21:57;101045.22;;;24.21;55.35
70781;BME280;59514;48.810;2.134;2022-07-12T08:24:22;101042.69;;;24.25;54.19
70781;BME280;59514;48.810;2.134;2022-07-12T08:26:47;101047.69;;;24.36;53.54
70781;BME280;59514;48.810;2.134;2022-07-12T08:29:13;101043.22;;;24.40;53.11
70781;BME280;59514;48.810;2.134;2022-07-12T08:31:39;101040.22;;;24.42;52.99
70781;BME280;59514;48.810;2.134;2022-07-12T08:34:04;101041.00;;;24.42;53.12
70781;BME280;59514;48.810;2.134;2022-07-12T08:36:30;101029.84;;;24.52;52.59
70781;BME280;59514;48.810;2.134;2022-07-12T08:38:57;101030.28;;;24.59;52.08
70781;BME280;59514;48.810;2.134;2022-07-12T08:41:23;101032.94;;;24.64;52.17
70781;BME280;59514;48.810;2.134;2022-07-12T08:43:56;101037.44;;;24.74;52.78
70781;BME280;59514;48.810;2.134;2022-07-12T08:46:21;101040.44;;;24.77;51.39
70781;BME280;59514;48.810;2.134;2022-07-12T08:48:47;101040.44;;;24.77;51.48
70781;BME280;59514;48.810;2.134;2022-07-12T08:51:19;101039.91;;;24.75;51.46
70781;BME280;59514;48.810;2.134;2022-07-12T08:53:45;101047.03;;;24.76;50.71
70781;BME280;59514;48.810;2.134;2022-07-12T08:56:32;101042.88;;;24.79;50.17
70781;BME280;59514;48.810;2.134;2022-07-12T09:01:50;101041.66;;;24.99;49.69
70781;BME280;59514;48.810;2.134;2022-07-12T09:04:18;101038.72;;;25.09;49.54
70781;BME280;59514;48.810;2.134;2022-07-12T09:06:44;101036.28;;;25.21;49.61
70781;BME280;59514;48.810;2.134;2022-07-12T09:09:10;101039.41;;;25.28;48.54
70781;BME280;59514;48.810;2.134;2022-07-12T09:11:39;101041.47;;;25.36;47.92
70781;BME280;59514;48.810;2.134;2022-07-12T09:14:18;101051.34;;;25.37;47.07
70781;BME280;59514;48.810;2.134;2022-07-12T09:16:43;101047.91;;;25.31;47.28
70781;BME280;59514;48.810;2.134;2022-07-12T09:19:17;101052.97;;;25.38;47.22
70781;BME280;59514;48.810;2.134;2022-07-12T09:21:52;101044.53;;;25.34;47.13
70781;BME280;59514;48.810;2.134;2022-07-12T09:24:19;101039.34;;;25.33;47.46
70781;BME280;59514;48.810;2.134;2022-07-12T09:26:45;101046.91;;;25.41;46.50
70781;BME280;59514;48.810;2.134;2022-07-12T09:29:12;101055.66;;;25.43;46.13
70781;BME280;59514;48.810;2.134;2022-07-12T09:31:48;101047.28;;;25.48;45.34
70781;BME280;59514;48.810;2.134;2022-07-12T09:34:32;101045.97;;;25.59;44.56
70781;BME280;59514;48.810;2.134;2022-07-12T09:37:16;101050.22;;;25.51;44.46
70781;BME280;59514;48.810;2.134;2022-07-12T09:39:42;101056.66;;;25.47;43.25
70781;BME280;59514;48.810;2.134;2022-07-12T09:42:08;101057.16;;;25.63;41.81
70781;BME280;59514;48.810;2.134;2022-07-12T09:44:35;101054.91;;;25.65;41.93
70781;BME280;59514;48.810;2.134;2022-07-12T09:47:01;101058.00;;;25.85;41.17
70781;BME280;59514;48.810;2.134;2022-07-12T09:49:27;101053.50;;;25.89;42.32
70781;BME280;59514;48.810;2.134;2022-07-12T09:51:56;101055.97;;;25.91;42.08
70781;BME280;59514;48.810;2.134;2022-07-12T09:54:28;101062.69;;;25.98;42.26
70781;BME280;59514;48.810;2.134;2022-07-12T09:56:59;101066.63;;;26.06;42.06
70781;BME280;59514;48.810;2.134;2022-07-12T09:59:28;101064.91;;;26.10;40.68
70781;BME280;59514;48.810;2.134;2022-07-12T10:01:56;101061.56;;;26.13;40.33
70781;BME280;59514;48.810;2.134;2022-07-12T10:04:28;101059.78;;;26.03;40.52
70781;BME280;59514;48.810;2.134;2022-07-12T10:06:54;101068.06;;;26.03;39.45
70781;BME280;59514;48.810;2.134;2022-07-12T10:09:20;101059.22;;;26.06;40.31
70781;BME280;59514;48.810;2.134;2022-07-12T10:11:46;101062.47;;;26.08;41.17
70781;BME280;59514;48.810;2.134;2022-07-12T10:14:12;101058.25;;;26.24;41.56
70781;BME280;59514;48.810;2.134;2022-07-12T10:16:41;101052.84;;;26.41;40.46
70781;BME280;59514;48.810;2.134;2022-07-12T10:19:21;101053.84;;;26.45;40.00
70781;BME280;59514;48.810;2.134;2022-07-12T10:21:48;101053.34;;;26.43;39.53
70781;BME280;59514;48.810;2.134;2022-07-12T10:29:23;101044.53;;;28.67;35.02
70781;BME280;59514;48.810;2.134;2022-07-12T10:31:50;101048.13;;;29.14;33.10
70781;BME280;59514;48.810;2.134;2022-07-12T10:34:22;101054.00;;;29.41;30.87
70781;BME280;59514;48.810;2.134;2022-07-12T10:39:26;101054.72;;;30.09;28.48
70781;BME280;59514;48.810;2.134;2022-07-12T10:44:49;101055.28;;;30.88;26.89
70781;BME280;59514;48.810;2.134;2022-07-12T10:47:15;101051.88;;;31.39;25.88
70781;BME280;59514;48.810;2.134;2022-07-12T10:49:49;101054.41;;;31.45;27.68
70781;BME280;59514;48.810;2.134;2022-07-12T10:52:16;101052.81;;;31.44;24.64
70781;BME280;59514;48.810;2.134;2022-07-12T10:54:47;101052.66;;;31.40;24.07
70781;BME280;59514;48.810;2.134;2022-07-12T10:57:16;101054.19;;;31.50;25.72
70781;BME280;59514;48.810;2.134;2022-07-12T10:59:43;101050.22;;;31.63;24.42
70781;BME280;59514;48.810;2.134;2022-07-12T11:02:10;101046.72;;;31.78;25.15
70781;BME280;59514;48.810;2.134;2022-07-12T11:04:46;101049.84;;;32.28;24.27
70781;BME280;59514;48.810;2.134;2022-07-12T11:07:16;101040.72;;;32.55;22.98
70781;BME280;59514;48.810;2.134;2022-07-12T11:09:42;101037.03;;;32.51;23.58
70781;BME280;59514;48.810;2.134;2022-07-12T11:12:07;101038.41;;;32.73;22.87
70781;BME280;59514;48.810;2.134;2022-07-12T11:14:33;101038.78;;;32.87;22.70
70781;BME280;59514;48.810;2.134;2022-07-12T11:17:00;101040.84;;;33.05;23.33
70781;BME280;59514;48.810;2.134;2022-07-12T11:19:27;101045.03;;;32.68;24.04
70781;BME280;59514;48.810;2.134;2022-07-12T11:21:53;101033.84;;;33.12;21.80
70781;BME280;59514;48.810;2.134;2022-07-12T11:24:24;101037.31;;;33.40;22.80
70781;BME280;59514;48.810;2.134;2022-07-12T11:26:50;101037.06;;;33.45;22.21
70781;BME280;59514;48.810;2.134;2022-07-12T11:29:16;101035.88;;;33.46;23.44
70781;BME280;59514;48.810;2.134;2022-07-12T11:31:42;101035.03;;;33.11;22.55
70781;BME280;59514;48.810;2.134;2022-07-12T11:34:19;101035.63;;;33.51;22.24
70781;BME280;59514;48.810;2.134;2022-07-12T11:36:45;101030.97;;;33.74;22.84
70781;BME280;59514;48.810;2.134;2022-07-12T11:39:11;101033.34;;;33.91;21.98
70781;BME280;59514;48.810;2.134;2022-07-12T11:41:36;101030.22;;;34.31;21.48
70781;BME280;59514;48.810;2.134;2022-07-12T11:44:01;101020.91;;;34.04;20.64
70781;BME280;59514;48.810;2.134;2022-07-12T11:46:27;101020.72;;;33.78;21.86
70781;BME280;59514;48.810;2.134;2022-07-12T11:48:52;101022.69;;;32.80;23.22
70781;BME280;59514;48.810;2.134;2022-07-12T11:51:18;101012.59;;;31.77;21.08
70781;BME280;59514;48.810;2.134;2022-07-12T11:53:43;101018.25;;;31.81;22.46
70781;BME280;59514;48.810;2.134;2022-07-12T11:56:09;101019.38;;;32.59;21.18
70781;BME280;59514;48.810;2.134;2022-07-12T11:58:36;101022.38;;;32.97;21.68
70781;BME280;59514;48.810;2.134;2022-07-12T12:01:04;101010.13;;;33.18;21.25
70781;BME280;59514;48.810;2.134;2022-07-12T12:03:30;101006.84;;;33.12;22.13
70781;BME280;59514;48.810;2.134;2022-07-12T12:06:00;101010.94;;;33.34;22.21
70781;BME280;59514;48.810;2.134;2022-07-12T12:08:25;101005.25;;;33.46;21.90
70781;BME280;59514;48.810;2.134;2022-07-12T12:10:56;101005.78;;;33.51;22.70
70781;BME280;59514;48.810;2.134;2022-07-12T12:13:22;101003.31;;;33.65;22.14
70781;BME280;59514;48.810;2.134;2022-07-12T12:15:56;100998.28;;;33.90;21.79
70781;BME280;59514;48.810;2.134;2022-07-12T12:18:32;101000.47;;;33.81;21.74
70781;BME280;59514;48.810;2.134;2022-07-12T12:21:04;100992.41;;;33.76;20.93
70781;BME280;59514;48.810;2.134;2022-07-12T12:23:31;100995.56;;;33.74;21.49
70781;BME280;59514;48.810;2.134;2022-07-12T12:26:16;100995.28;;;33.99;21.84
70781;BME280;59514;48.810;2.134;2022-07-12T12:28:42;100997.28;;;34.17;20.87
70781;BME280;59514;48.810;2.134;2022-07-12T12:31:08;100997.00;;;34.45;21.59
70781;BME280;59514;48.810;2.134;2022-07-12T12:36:21;100985.47;;;34.65;21.19
70781;BME280;59514;48.810;2.134;2022-07-12T12:38:49;100988.06;;;34.55;20.57
70781;BME280;59514;48.810;2.134;2022-07-12T12:41:16;100982.97;;;34.60;19.99
70781;BME280;59514;48.810;2.134;2022-07-12T12:43:43;100984.84;;;34.76;19.19
70781;BME280;59514;48.810;2.134;2022-07-12T12:46:08;100975.75;;;34.37;18.69
70781;BME280;59514;48.810;2.134;2022-07-12T12:48:35;100970.06;;;34.52;19.04
70781;BME280;59514;48.810;2.134;2022-07-12T12:51:11;100971.38;;;34.58;19.36
70781;BME280;59514;48.810;2.134;2022-07-12T12:53:37;100976.78;;;34.29;19.48
70781;BME280;59514;48.810;2.134;2022-07-12T12:56:10;100971.69;;;34.53;18.17
70781;BME280;59514;48.810;2.134;2022-07-12T12:58:36;100967.19;;;34.68;18.76
70781;BME280;59514;48.810;2.134;2022-07-12T13:01:02;100971.09;;;34.63;19.67
70781;BME280;59514;48.810;2.134;2022-07-12T13:03:28;100972.94;;;34.56;20.88